Terminal Aerodrome Forecast
Issued by NWS Charleston, WV

Current Version | Previous Version | Text Only | Print | Product List | Glossary Off
Versions: 1 2 3 4 5 6 7 8 9 10 11 12 13 14 15 16 17 18 19 20 21 22

000
FTUS41 KRLX 212000 AAA
TAFPKB
TAF AMD
KPKB 212058Z 2121/2218 12003KT P6SM FEW040 SCT100
     FM220300 00000KT 4SM BR BKN250
     FM220600 00000KT 2SM BR SCT035
     FM220700 00000KT 1/4SM FG OVC001
     FM221300 VRB03KT 3SM BR FEW035
     FM221400 VRB03KT P6SM SCT035=

USA.gov is the U.S. government's official web portal to all federal, state and local government web resources and services.